Time;durP1;ratioP1;P1;durP2;ratioP2;P2;SDS_P1;SDS_P2;PMS_P1;PMS_P2;Temp;Humidity;BMP_temperature;BMP_pressure;BME280_temperature;BME280_humidity;BME280_pressure;Samples;Min_cycle;Max_cycle;Signal;HPM_P1;HPM_P2
2021/06/20 00:00:30;;;;;;;32.88;16.85;;;16.50;99.90;;;;;;5105130;28;20041;-89
2021/06/20 00:02:57;;;;;;;30.77;15.20;;;16.50;99.90;;;;;;5088883;28;20033;-88
2021/06/20 00:05:30;;;;;;;31.60;16.67;;;16.50;99.90;;;;;;5121859;28;20481;-88
2021/06/20 00:08:00;;;;;;;30.13;15.85;;;16.50;99.90;;;;;;5088665;28;20552;-88
2021/06/20 00:10:28;;;;;;;34.78;17.08;;;16.50;99.90;;;;;;5121016;28;20441;-88
2021/06/20 00:12:57;;;;;;;29.45;15.38;;;16.50;99.90;;;;;;5121896;28;20041;-87
2021/06/20 00:15:25;;;;;;;27.00;15.45;;;16.50;99.90;;;;;;5105100;28;20041;-90
2021/06/20 00:17:53;;;;;;;33.67;15.82;;;16.50;99.90;;;;;;5105559;28;20029;-89
2021/06/20 00:20:23;;;;;;;32.88;15.70;;;16.50;99.90;;;;;;5089238;28;20040;-87
2021/06/20 00:22:51;;;;;;;30.48;16.17;;;16.40;99.90;;;;;;5122042;28;20040;-89
2021/06/20 00:25:19;;;;;;;32.47;16.38;;;16.40;99.90;;;;;;5104709;28;20488;-89
2021/06/20 00:27:46;;;;;;;28.88;15.40;;;16.50;99.90;;;;;;5105261;28;20075;-87
2021/06/20 00:30:16;;;;;;;33.22;15.80;;;16.50;99.90;;;;;;5121733;28;20037;-89
2021/06/20 00:32:45;;;;;;;39.47;16.60;;;16.50;99.90;;;;;;5121648;28;20117;-88
2021/06/20 00:35:14;;;;;;;38.92;18.15;;;16.50;99.90;;;;;;5089095;28;20044;-89
2021/06/20 00:37:41;;;;;;;36.00;18.17;;;16.50;99.90;;;;;;5118450;28;20036;-88
2021/06/20 00:40:08;;;;;;;37.67;19.02;;;16.50;99.90;;;;;;5107789;28;20036;-87
2021/06/20 00:42:36;;;;;;;35.97;17.70;;;16.50;99.90;;;;;;5108309;28;20067;-89
2021/06/20 00:45:04;;;;;;;40.67;19.90;;;16.50;99.90;;;;;;5107442;28;20060;-85
2021/06/20 00:47:31;;;;;;;47.97;20.48;;;16.40;99.90;;;;;;5124464;28;20040;-86
2021/06/20 00:49:58;;;;;;;42.10;19.30;;;16.30;99.90;;;;;;5107736;28;20473;-86
2021/06/20 00:52:25;;;;;;;52.90;19.80;;;16.20;99.90;;;;;;5090748;28;20041;-85
2021/06/20 00:54:54;;;;;;;39.60;19.30;;;16.30;99.90;;;;;;5107990;28;20037;-86
2021/06/20 00:57:22;;;;;;;36.50;19.48;;;16.20;99.90;;;;;;5107813;28;20059;-86
2021/06/20 00:59:50;;;;;;;31.70;18.70;;;16.30;99.90;;;;;;5124642;28;20040;-87
2021/06/20 01:02:19;;;;;;;39.25;18.63;;;16.30;99.90;;;;;;5107520;28;20050;-86
2021/06/20 01:04:49;;;;;;;36.47;18.70;;;16.30;99.90;;;;;;5107357;28;20044;-87
2021/06/20 01:07:21;;;;;;;36.80;18.15;;;16.40;99.90;;;;;;5107299;28;20055;-87
2021/06/20 01:09:50;;;;;;;36.85;19.40;;;16.40;99.90;;;;;;5124525;28;20071;-87
2021/06/20 01:12:18;;;;;;;41.25;20.73;;;16.40;99.90;;;;;;5106921;28;20040;-86
2021/06/20 01:14:47;;;;;;;36.45;19.20;;;16.50;99.90;;;;;;5107457;28;20064;-87
2021/06/20 01:17:15;;;;;;;34.47;18.23;;;16.40;99.90;;;;;;5090774;28;20495;-86
2021/06/20 01:19:42;;;;;;;31.20;16.65;;;16.50;99.90;;;;;;5107156;28;20047;-87
2021/06/20 01:22:33;;;;;;;37.05;18.60;;;16.50;99.90;;;;;;5107595;28;20036;-87
2021/06/20 01:25:12;;;;;;;31.70;17.85;;;16.50;99.90;;;;;;5107547;28;20044;-87
2021/06/20 01:27:41;;;;;;;32.78;17.85;;;16.50;99.90;;;;;;5108586;28;20040;-88
2021/06/20 01:30:15;;;;;;;29.65;17.75;;;16.50;99.90;;;;;;5108798;28;20044;-87
2021/06/20 01:32:42;;;;;;;34.58;18.08;;;16.50;99.90;;;;;;5107376;28;20139;-87
2021/06/20 01:35:11;;;;;;;55.97;18.77;;;16.60;99.90;;;;;;5108406;28;20498;-88
2021/06/20 01:37:38;;;;;;;36.50;17.33;;;16.60;99.90;;;;;;5107590;28;20036;-87
2021/06/20 01:40:07;;;;;;;30.15;17.25;;;16.60;99.90;;;;;;5090911;28;20391;-88
2021/06/20 01:42:34;;;;;;;32.30;16.92;;;16.50;99.90;;;;;;5107609;28;20478;-88
2021/06/20 01:45:01;;;;;;;35.85;17.95;;;16.50;99.90;;;;;;5107594;28;20085;-88
2021/06/20 01:47:29;;;;;;;33.92;17.88;;;16.50;99.90;;;;;;5106750;28;20450;-89
2021/06/20 01:50:00;;;;;;;33.22;17.45;;;16.50;99.90;;;;;;5107966;28;20404;-88
2021/06/20 01:52:27;;;;;;;31.77;17.58;;;16.50;99.90;;;;;;5105787;28;20036;-89
2021/06/20 01:54:56;;;;;;;31.60;17.70;;;16.40;99.90;;;;;;5089862;28;20071;-89
2021/06/20 01:57:24;;;;;;;36.35;18.20;;;16.50;99.90;;;;;;5097747;28;20067;-87
2021/06/20 01:59:51;;;;;;;39.92;18.85;;;16.50;99.90;;;;;;5089656;28;20037;-89
2021/06/20 02:02:19;;;;;;;34.42;18.48;;;16.50;99.90;;;;;;5086422;28;20091;-88
2021/06/20 02:04:47;;;;;;;42.88;19.15;;;16.50;99.90;;;;;;5070586;28;20060;-88
2021/06/20 02:07:13;;;;;;;35.45;18.52;;;16.50;99.90;;;;;;5087052;28;20052;-89
2021/06/20 02:09:41;;;;;;;33.97;19.02;;;16.50;99.90;;;;;;5103233;28;20036;-89
2021/06/20 02:12:09;;;;;;;35.83;18.70;;;16.50;99.90;;;;;;5087227;28;20064;-89
2021/06/20 02:14:38;;;;;;;34.10;19.38;;;16.50;99.90;;;;;;5086860;28;20115;-89
2021/06/20 02:17:17;;;;;;;34.28;18.33;;;16.50;99.90;;;;;;5104179;28;20082;-89
2021/06/20 02:19:43;;;;;;;31.83;18.23;;;16.50;99.90;;;;;;5087102;28;20029;-89
2021/06/20 02:22:10;;;;;;;40.47;19.55;;;16.50;99.90;;;;;;5070355;28;20037;-90
2021/06/20 02:24:37;;;;;;;33.65;18.65;;;16.50;99.90;;;;;;5086923;28;20083;-90
2021/06/20 02:27:05;;;;;;;34.75;18.92;;;16.50;99.90;;;;;;5087120;28;20044;-90
2021/06/20 02:29:32;;;;;;;34.30;19.52;;;16.60;99.90;;;;;;5054025;28;20037;-90
2021/06/20 02:31:59;;;;;;;32.13;18.73;;;16.50;99.90;;;;;;5087089;28;20112;-89
2021/06/20 02:34:26;;;;;;;33.47;18.98;;;16.50;99.90;;;;;;5073779;28;20033;-87
2021/06/20 02:36:53;;;;;;;40.67;19.98;;;16.50;99.90;;;;;;5090416;28;20037;-88
2021/06/20 02:39:19;;;;;;;34.35;19.55;;;16.50;99.90;;;;;;5090681;28;20043;-87
2021/06/20 02:41:50;;;;;;;34.85;19.52;;;16.50;99.90;;;;;;5107453;28;20491;-88
2021/06/20 02:44:17;;;;;;;33.20;19.75;;;16.50;99.90;;;;;;5074559;28;20447;-90
2021/06/20 02:46:47;;;;;;;35.80;20.50;;;16.50;99.90;;;;;;5089972;28;20076;-91
2021/06/20 02:49:13;;;;;;;42.90;21.17;;;16.60;99.90;;;;;;5107490;28;20029;-90
2021/06/20 02:51:43;;;;;;;42.58;21.88;;;16.60;99.90;;;;;;5123587;28;20037;-90
2021/06/20 02:54:11;;;;;;;34.10;20.85;;;16.50;99.90;;;;;;5074216;28;20609;-91
2021/06/20 02:56:39;;;;;;;33.42;21.13;;;16.60;99.90;;;;;;5090038;28;20073;-91
2021/06/20 02:59:05;;;;;;;38.13;22.13;;;16.60;99.90;;;;;;5090629;28;20037;-90
2021/06/20 03:01:33;;;;;;;35.53;22.05;;;16.60;99.90;;;;;;5106514;28;20103;-88
2021/06/20 03:04:00;;;;;;;37.63;23.10;;;16.60;99.90;;;;;;5106996;28;20041;-91
2021/06/20 03:06:27;;;;;;;36.67;24.15;;;16.60;99.90;;;;;;5106490;28;20035;-91
2021/06/20 03:08:54;;;;;;;39.00;24.40;;;16.70;99.90;;;;;;5090242;28;20094;-92
2021/06/20 03:11:21;;;;;;;47.75;26.25;;;16.70;99.90;;;;;;5090412;28;20037;-93
2021/06/20 03:13:48;;;;;;;43.28;26.08;;;16.70;99.90;;;;;;5089273;28;20033;-92
2021/06/20 03:16:17;;;;;;;38.92;24.20;;;16.70;99.90;;;;;;5090180;28;20071;-92
2021/06/20 03:18:44;;;;;;;42.45;24.70;;;16.70;99.90;;;;;;5089983;28;20538;-93
2021/06/20 03:21:11;;;;;;;42.65;25.38;;;16.70;99.90;;;;;;5090102;28;20123;-91
2021/06/20 03:23:38;;;;;;;42.33;25.65;;;16.70;99.90;;;;;;5106184;28;20036;-93
2021/06/20 03:26:05;;;;;;;36.17;24.20;;;16.80;99.90;;;;;;5072891;28;20049;-92
2021/06/20 03:28:32;;;;;;;40.30;25.17;;;16.80;99.90;;;;;;5072742;28;20039;-92
2021/06/20 03:30:59;;;;;;;41.97;25.25;;;16.80;99.90;;;;;;5106292;28;20500;-91
2021/06/20 03:33:26;;;;;;;39.47;24.85;;;16.80;99.90;;;;;;5089000;28;20040;-89
2021/06/20 03:35:52;;;;;;;35.25;24.05;;;16.80;99.90;;;;;;5105991;28;20099;-93
2021/06/20 03:38:19;;;;;;;35.92;24.38;;;16.80;99.90;;;;;;5089594;28;20448;-92
2021/06/20 03:40:46;;;;;;;48.00;26.25;;;16.80;99.90;;;;;;5072732;28;20045;-93
2021/06/20 03:43:13;;;;;;;36.40;23.10;;;16.80;99.90;;;;;;5056720;28;20057;-93
2021/06/20 03:45:40;;;;;;;38.80;24.80;;;16.80;99.90;;;;;;5089523;28;20048;-93
2021/06/20 03:48:08;;;;;;;39.72;26.45;;;16.90;99.90;;;;;;5107468;28;20021;-93
2021/06/20 03:50:35;;;;;;;42.72;25.90;;;16.90;99.90;;;;;;5089549;28;20087;-91
2021/06/20 03:53:02;;;;;;;43.40;26.75;;;17.00;99.90;;;;;;5090303;28;20044;-92
2021/06/20 03:55:29;;;;;;;41.25;26.08;;;17.00;99.90;;;;;;5088792;28;20041;-93
2021/06/20 03:57:56;;;;;;;52.13;27.60;;;17.10;99.90;;;;;;5106675;28;20047;-94
2021/06/20 04:00:23;;;;;;;42.17;25.05;;;17.10;99.90;;;;;;5089468;28;20063;-92
2021/06/20 04:02:49;;;;;;;52.60;27.15;;;17.10;99.90;;;;;;5072203;28;20508;-92
2021/06/20 04:05:16;;;;;;;40.88;25.63;;;17.10;99.90;;;;;;5072834;28;20068;-93
2021/06/20 04:07:43;;;;;;;35.65;25.88;;;17.10;99.90;;;;;;5072654;28;20103;-93
2021/06/20 04:10:10;;;;;;;41.42;27.88;;;17.10;99.90;;;;;;5072690;28;20037;-93
2021/06/20 04:12:37;;;;;;;43.78;27.42;;;17.20;99.90;;;;;;5072252;28;20408;-93
2021/06/20 04:15:05;;;;;;;35.00;26.17;;;17.20;99.90;;;;;;5072885;28;20041;-93
2021/06/20 04:17:34;;;;;;;40.25;28.33;;;17.20;99.90;;;;;;5072234;28;20041;-91
2021/06/20 04:20:03;;;;;;;40.75;27.00;;;17.30;99.90;;;;;;5089603;28;20037;-94
2021/06/20 04:22:30;;;;;;;39.13;27.33;;;17.30;99.90;;;;;;5072400;28;20503;-94
2021/06/20 04:24:57;;;;;;;43.55;28.70;;;17.30;99.90;;;;;;5072270;28;20123;-94
2021/06/20 04:27:24;;;;;;;38.55;27.83;;;17.40;99.90;;;;;;5105340;28;20469;-94
2021/06/20 04:29:51;;;;;;;40.25;28.30;;;17.40;99.90;;;;;;5088684;28;20390;-93
2021/06/20 04:32:18;;;;;;;36.50;26.48;;;17.40;99.90;;;;;;5088759;28;20028;-93
2021/06/20 04:34:44;;;;;;;42.58;28.63;;;17.50;99.90;;;;;;5054801;28;20409;-94
2021/06/20 04:37:11;;;;;;;43.42;28.92;;;17.50;99.90;;;;;;5072356;28;20044;-94
2021/06/20 04:39:38;;;;;;;37.33;26.67;;;17.50;99.90;;;;;;5088418;28;20036;-93
2021/06/20 04:42:07;;;;;;;36.75;25.85;;;17.60;99.90;;;;;;5088724;28;20033;-92
2021/06/20 04:44:43;;;;;;;37.75;26.10;;;17.60;99.90;;;;;;5087928;28;20037;-92
2021/06/20 04:47:12;;;;;;;44.45;29.17;;;17.70;99.90;;;;;;5088750;28;20041;-94
2021/06/20 04:49:40;;;;;;;37.38;27.77;;;17.70;99.90;;;;;;5071513;28;20040;-93
2021/06/20 04:52:11;;;;;;;38.00;25.88;;;17.70;99.90;;;;;;5072086;28;20033;-95
2021/06/20 04:54:52;;;;;;;37.47;27.52;;;17.70;99.90;;;;;;5087817;28;20129;-93
2021/06/20 04:57:24;;;;;;;33.90;25.83;;;17.80;99.90;;;;;;5088665;28;20044;-95
2021/06/20 04:59:52;;;;;;;36.08;26.38;;;17.70;99.90;;;;;;5071844;28;20039;-93
2021/06/20 05:02:20;;;;;;;42.13;27.65;;;17.70;99.90;;;;;;5088769;28;20029;-94
2021/06/20 05:04:47;;;;;;;34.97;25.70;;;17.80;99.90;;;;;;5087845;28;20037;-93
2021/06/20 05:07:14;;;;;;;40.08;26.95;;;17.80;99.90;;;;;;5071845;28;20392;-93
2021/06/20 05:09:41;;;;;;;35.22;26.15;;;17.80;99.90;;;;;;5087913;28;20117;-92
2021/06/20 05:12:09;;;;;;;36.10;25.33;;;17.80;99.90;;;;;;5071328;28;20033;-92
2021/06/20 05:14:38;;;;;;;37.63;26.45;;;17.90;99.90;;;;;;5071760;28;20072;-90
2021/06/20 05:17:05;;;;;;;32.60;25.25;;;17.90;99.90;;;;;;5088628;28;20044;-94
2021/06/20 05:19:32;;;;;;;32.83;25.30;;;18.00;99.90;;;;;;5104973;28;20488;-91
2021/06/20 05:21:59;;;;;;;28.95;23.20;;;18.00;99.90;;;;;;5104931;28;20045;-93
2021/06/20 05:24:25;;;;;;;31.95;23.35;;;18.00;99.90;;;;;;5087933;28;20041;-94
2021/06/20 05:26:52;;;;;;;34.25;24.42;;;18.00;99.90;;;;;;5070551;28;20053;-94
2021/06/20 05:29:19;;;;;;;33.22;23.40;;;18.10;99.90;;;;;;5104917;28;20189;-93
2021/06/20 05:31:46;;;;;;;42.15;25.35;;;18.10;99.90;;;;;;5087947;28;20393;-92
2021/06/20 05:34:13;;;;;;;33.42;24.05;;;18.10;99.90;;;;;;5071364;28;20071;-93
2021/06/20 05:36:40;;;;;;;31.27;23.58;;;18.10;99.90;;;;;;5087715;28;20037;-93
2021/06/20 05:39:07;;;;;;;30.55;23.17;;;18.10;99.90;;;;;;5088149;28;20033;-93
2021/06/20 05:41:34;;;;;;;32.20;24.48;;;18.20;99.90;;;;;;5087903;28;20515;-91
2021/06/20 05:44:01;;;;;;;36.70;25.77;;;18.20;99.90;;;;;;5087384;28;20468;-93
2021/06/20 05:46:28;;;;;;;30.55;23.05;;;18.30;99.90;;;;;;5087929;28;20041;-94
2021/06/20 05:48:55;;;;;;;32.03;24.60;;;18.30;99.90;;;;;;5087405;28;20056;-92
2021/06/20 05:51:22;;;;;;;28.25;22.77;;;18.40;99.90;;;;;;5088146;28;20044;-90
2021/06/20 05:53:49;;;;;;;32.17;23.83;;;18.40;99.90;;;;;;5070838;28;20043;-93
2021/06/20 05:56:16;;;;;;;34.92;25.17;;;18.40;99.90;;;;;;5087992;28;20148;-93
2021/06/20 05:58:43;;;;;;;31.83;23.75;;;18.50;99.90;;;;;;5070743;28;20136;-94
2021/06/20 06:01:10;;;;;;;31.38;23.25;;;18.60;99.90;;;;;;5087818;28;20080;-94
2021/06/20 06:03:37;;;;;;;38.05;24.55;;;18.60;99.90;;;;;;5056176;28;20037;-93
2021/06/20 06:06:04;;;;;;;26.77;21.70;;;18.70;99.90;;;;;;5079473;28;20037;-93
2021/06/20 06:08:31;;;;;;;33.13;23.08;;;18.80;99.90;;;;;;5074201;28;20075;-94
2021/06/20 06:10:58;;;;;;;31.77;22.55;;;18.80;99.90;;;;;;5075178;28;20033;-93
2021/06/20 06:13:25;;;;;;;29.42;23.05;;;18.90;99.90;;;;;;5091613;28;20067;-93
2021/06/20 06:15:52;;;;;;;30.45;22.48;;;18.90;99.90;;;;;;5127200;28;20036;-94
2021/06/20 06:18:19;;;;;;;32.65;23.95;;;19.00;99.90;;;;;;5083477;28;20040;-94
2021/06/20 06:20:46;;;;;;;31.42;22.67;;;19.10;99.90;;;;;;5060708;28;20047;-94
2021/06/20 06:23:13;;;;;;;29.90;22.58;;;19.20;99.90;;;;;;5094570;28;20567;-91
2021/06/20 06:25:40;;;;;;;28.02;21.10;;;19.30;99.90;;;;;;5084348;28;20037;-91
2021/06/20 06:28:07;;;;;;;29.73;20.95;;;19.50;99.90;;;;;;5096025;28;20052;-92
2021/06/20 06:30:34;;;;;;;27.52;20.58;;;19.60;99.90;;;;;;5103685;28;20442;-88
2021/06/20 06:33:04;;;;;;;25.48;19.67;;;19.80;99.90;;;;;;5102678;28;20032;-92
2021/06/20 06:35:31;;;;;;;26.73;18.73;;;19.90;99.90;;;;;;5097681;28;20052;-91
2021/06/20 06:37:59;;;;;;;22.42;17.50;;;19.90;99.90;;;;;;5124078;28;20061;-88
2021/06/20 06:40:28;;;;;;;22.05;17.35;;;19.90;99.90;;;;;;5138778;28;20205;-90
2021/06/20 06:42:56;;;;;;;22.60;16.30;;;19.80;99.90;;;;;;5079383;28;20028;-90
2021/06/20 06:45:23;;;;;;;20.95;16.08;;;19.70;99.90;;;;;;5090631;28;20033;-89
2021/06/20 06:47:50;;;;;;;22.50;15.98;;;19.70;99.90;;;;;;5090170;28;20037;-88
2021/06/20 06:50:17;;;;;;;23.08;16.23;;;19.70;99.90;;;;;;5090389;28;20456;-87
2021/06/20 06:52:46;;;;;;;22.38;15.40;;;19.70;99.90;;;;;;5073584;28;20033;-89
2021/06/20 06:55:16;;;;;;;23.95;15.05;;;19.80;99.90;;;;;;5090596;28;20041;-91
2021/06/20 06:57:53;;;;;;;17.48;14.35;;;19.90;99.90;;;;;;5060470;28;20053;-89
2021/06/20 07:00:20;;;;;;;19.40;14.40;;;19.90;99.90;;;;;;5074119;28;20535;-89
2021/06/20 07:02:47;;;;;;;16.95;14.10;;;20.10;99.90;;;;;;5090945;28;20033;-88
2021/06/20 07:05:14;;;;;;;18.38;14.23;;;20.00;99.90;;;;;;5058398;28;20539;-93
2021/06/20 07:07:41;;;;;;;18.20;14.07;;;20.00;99.90;;;;;;5074851;28;20052;-87
2021/06/20 07:10:08;;;;;;;18.58;14.40;;;20.10;99.90;;;;;;5090211;28;20041;-89
2021/06/20 07:12:35;;;;;;;17.38;14.52;;;20.10;99.90;;;;;;5071509;28;20510;-88
2021/06/20 07:15:05;;;;;;;17.83;14.07;;;20.10;99.90;;;;;;5078407;28;20045;-90
2021/06/20 07:17:33;;;;;;;18.02;13.75;;;20.00;99.90;;;;;;5073314;28;20045;-89
2021/06/20 07:20:09;;;;;;;15.40;12.38;;;20.00;99.90;;;;;;5073796;28;20049;-86
2021/06/20 07:22:44;;;;;;;15.10;12.35;;;19.90;99.90;;;;;;5056912;28;20060;-94
2021/06/20 07:25:14;;;;;;;14.65;11.77;;;19.90;99.90;;;;;;5073261;28;20041;-87
2021/06/20 07:27:40;;;;;;;16.35;10.90;;;20.00;99.90;;;;;;5072788;28;20052;-85
2021/06/20 07:30:13;;;;;;;14.82;10.85;;;19.90;99.90;;;;;;5088943;28;20037;-87
2021/06/20 07:32:42;;;;;;;13.20;11.00;;;19.90;99.90;;;;;;5089530;28;20029;-86
2021/06/20 07:35:09;;;;;;;13.35;10.80;;;19.90;99.90;;;;;;5088770;28;20170;-85
2021/06/20 07:37:36;;;;;;;13.85;10.48;;;19.80;99.90;;;;;;5072163;28;20052;-86
2021/06/20 07:40:06;;;;;;;12.07;9.38;;;19.80;99.90;;;;;;5105421;28;20102;-86
2021/06/20 07:42:33;;;;;;;13.13;10.25;;;19.80;99.90;;;;;;5072576;28;20045;-88
2021/06/20 07:45:00;;;;;;;13.43;10.48;;;19.80;99.90;;;;;;5088738;28;20482;-87
2021/06/20 07:47:27;;;;;;;11.43;8.77;;;19.80;99.90;;;;;;5054710;28;20045;-71
2021/06/20 07:50:00;;;;;;;12.45;9.57;;;19.70;99.90;;;;;;5089393;28;20033;-82
2021/06/20 07:52:27;;;;;;;10.68;8.75;;;19.70;99.90;;;;;;5070662;28;20420;-90
2021/06/20 07:54:54;;;;;;;12.60;8.90;;;19.70;99.90;;;;;;5072542;28;20041;-88
2021/06/20 07:57:23;;;;;;;13.00;9.93;;;19.70;99.90;;;;;;5055476;28;20477;-91
2021/06/20 07:59:52;;;;;;;11.05;8.75;;;19.70;99.90;;;;;;5088055;28;20078;-89
2021/06/20 08:02:19;;;;;;;11.07;9.23;;;19.70;99.90;;;;;;5060577;28;20397;-88
2021/06/20 08:04:47;;;;;;;12.32;8.80;;;19.70;99.90;;;;;;5092675;28;20044;-72
2021/06/20 08:07:14;;;;;;;11.02;7.95;;;19.70;99.90;;;;;;5102637;28;20040;-76
2021/06/20 08:09:43;;;;;;;9.25;7.55;;;19.70;99.90;;;;;;5096344;28;20035;-73
2021/06/20 08:12:10;;;;;;;10.90;7.43;;;19.60;99.90;;;;;;5091640;28;20103;-76
2021/06/20 08:14:37;;;;;;;8.98;6.97;;;19.70;99.90;;;;;;5069765;28;20120;-74
2021/06/20 08:17:04;;;;;;;8.63;6.10;;;19.70;99.90;;;;;;5096969;28;20063;-73
2021/06/20 08:19:33;;;;;;;9.65;6.50;;;19.70;99.90;;;;;;5101551;28;20083;-80
2021/06/20 08:21:59;;;;;;;7.78;5.60;;;19.70;99.90;;;;;;5082281;28;20028;-73
2021/06/20 08:24:26;;;;;;;10.85;5.78;;;19.70;99.90;;;;;;5091189;28;20119;-73
2021/06/20 08:26:53;;;;;;;6.82;5.25;;;19.90;99.90;;;;;;5094146;28;20542;-73
2021/06/20 08:29:23;;;;;;;7.70;5.28;;;20.00;99.90;;;;;;5094437;28;20040;-73
2021/06/20 08:31:49;;;;;;;7.00;4.50;;;20.10;99.90;;;;;;5096197;28;20048;-72
2021/06/20 08:34:16;;;;;;;6.75;4.40;;;20.30;99.90;;;;;;5079574;28;20128;-73
2021/06/20 08:36:43;;;;;;;7.47;4.10;;;20.30;99.90;;;;;;5071522;28;20049;-74
2021/06/20 08:39:10;;;;;;;5.30;3.97;;;20.40;99.90;;;;;;5093576;28;20051;-73
2021/06/20 08:41:42;;;;;;;12.73;5.35;;;20.20;99.90;;;;;;5096828;28;20037;-72
2021/06/20 08:44:32;;;;;;;5.55;3.63;;;20.20;99.90;;;;;;5093102;28;20388;-73
2021/06/20 08:47:02;;;;;;;6.22;3.80;;;20.20;99.90;;;;;;5123691;28;20473;-90
2021/06/20 08:49:30;;;;;;;5.50;3.65;;;20.20;99.90;;;;;;5106422;28;20124;-92
2021/06/20 08:51:59;;;;;;;8.13;3.53;;;20.20;99.90;;;;;;5089311;28;20127;-91
2021/06/20 08:54:26;;;;;;;4.82;3.45;;;20.20;99.90;;;;;;5072339;28;20072;-88
2021/06/20 08:56:53;;;;;;;5.80;3.30;;;20.20;99.90;;;;;;5087958;28;20116;-90
2021/06/20 08:59:23;;;;;;;5.10;3.45;;;20.20;99.90;;;;;;5072699;28;20095;-89
2021/06/20 09:01:51;;;;;;;6.20;2.75;;;20.00;99.90;;;;;;5088189;28;20091;-90
2021/06/20 09:04:30;;;;;;;4.45;2.88;;;20.10;99.90;;;;;;5123177;28;20033;-90
2021/06/20 09:07:05;;;;;;;3.58;2.60;;;20.00;99.90;;;;;;5123466;28;20040;-88
2021/06/20 09:09:36;;;;;;;4.70;2.80;;;20.00;99.90;;;;;;5089912;28;20090;-88
2021/06/20 09:12:08;;;;;;;5.38;2.60;;;19.90;99.90;;;;;;5088369;28;20017;-89
2021/06/20 09:15:04;;;;;;;5.65;2.47;;;19.80;99.90;;;;;;5089227;28;20037;-89
2021/06/20 09:17:30;;;;;;;3.63;2.30;;;20.00;99.90;;;;;;5089074;28;20059;-89
2021/06/20 09:19:58;;;;;;;3.90;2.20;;;20.00;99.90;;;;;;5087505;28;20033;-86
2021/06/20 09:22:27;;;;;;;4.20;1.98;;;20.00;99.90;;;;;;5086267;28;20143;-88
2021/06/20 09:24:59;;;;;;;3.42;2.00;;;20.10;99.90;;;;;;5070852;28;20472;-86
2021/06/20 09:27:33;;;;;;;3.53;1.90;;;20.10;99.90;;;;;;5070985;28;20061;-92
2021/06/20 09:30:29;;;;;;;4.95;2.10;;;20.10;99.90;;;;;;5076875;28;20113;-72
2021/06/20 09:33:00;;;;;;;3.75;1.88;;;20.10;99.90;;;;;;5085444;28;20087;-87
2021/06/20 09:35:41;;;;;;;5.72;1.70;;;20.20;99.90;;;;;;5066238;28;20056;-87
2021/06/20 09:38:17;;;;;;;6.90;1.60;;;20.30;99.90;;;;;;5073108;28;20392;-88
2021/06/20 09:40:45;;;;;;;4.20;1.45;;;20.20;99.90;;;;;;5067329;28;20041;-89
2021/06/20 09:43:14;;;;;;;3.75;1.35;;;20.10;99.90;;;;;;5074258;28;20041;-88
2021/06/20 09:45:46;;;;;;;4.22;1.15;;;20.10;99.90;;;;;;5074609;28;20116;-87
2021/06/20 09:48:22;;;;;;;4.18;1.17;;;20.10;99.90;;;;;;5090422;28;20029;-90
2021/06/20 09:50:49;;;;;;;2.85;1.15;;;20.10;99.90;;;;;;5074021;28;20087;-85
2021/06/20 09:53:20;;;;;;;3.85;1.27;;;20.40;99.90;;;;;;5073373;28;20126;-84
2021/06/20 09:55:47;;;;;;;4.35;1.63;;;20.90;99.90;;;;;;5074066;28;20041;-87
2021/06/20 09:58:21;;;;;;;2.20;0.90;;;20.90;99.90;;;;;;5057185;28;20059;-86
2021/06/20 10:00:47;;;;;;;4.20;0.93;;;20.70;99.90;;;;;;5091445;28;20037;-86
2021/06/20 10:03:24;;;;;;;1.23;0.75;;;20.70;99.90;;;;;;5073874;28;20041;-86
2021/06/20 10:05:53;;;;;;;2.60;1.00;;;20.80;99.90;;;;;;5091027;28;20040;-87
2021/06/20 10:08:20;;;;;;;2.78;0.80;;;21.10;99.90;;;;;;5073878;28;20039;-85
2021/06/20 10:10:47;;;;;;;1.40;0.80;;;21.10;99.90;;;;;;5090739;28;20451;-86
2021/06/20 10:13:14;;;;;;;2.50;0.60;;;21.10;99.90;;;;;;5056763;28;20045;-85
2021/06/20 10:15:41;;;;;;;2.75;0.60;;;21.10;99.90;;;;;;5073584;28;20116;-87
2021/06/20 10:18:10;;;;;;;1.35;0.60;;;21.10;99.90;;;;;;5073464;28;20044;-87
2021/06/20 10:20:37;;;;;;;1.33;0.70;;;21.10;99.90;;;;;;5090394;28;20036;-86
2021/06/20 10:23:15;;;;;;;2.35;0.70;;;21.10;99.90;;;;;;5073820;28;20036;-86
2021/06/20 10:25:42;;;;;;;3.45;0.75;;;21.20;99.90;;;;;;5089901;28;20478;-86
2021/06/20 10:28:12;;;;;;;1.83;0.63;;;21.20;99.90;;;;;;5056183;28;20057;-86
2021/06/20 10:30:45;;;;;;;1.58;0.70;;;21.20;99.90;;;;;;5090184;28;20481;-86
2021/06/20 10:33:16;;;;;;;1.67;0.60;;;21.20;99.90;;;;;;5089550;28;20041;-86
2021/06/20 10:35:44;;;;;;;3.92;0.70;;;21.40;99.90;;;;;;5089856;28;20120;-85
2021/06/20 10:38:41;;;;;;;2.00;0.70;;;21.50;99.90;;;;;;5073033;28;20029;-86
2021/06/20 10:41:22;;;;;;;1.65;0.65;;;21.50;99.90;;;;;;5090008;28;20029;-86
2021/06/20 10:44:03;;;;;;;2.22;0.80;;;21.50;99.90;;;;;;5090037;28;20033;-87
2021/06/20 10:46:30;;;;;;;2.60;0.70;;;21.50;99.90;;;;;;5072804;28;20167;-87
2021/06/20 10:48:58;;;;;;;2.95;0.90;;;21.30;99.90;;;;;;5090734;28;20089;-83
2021/06/20 10:51:25;;;;;;;2.53;0.80;;;21.30;99.90;;;;;;5072976;28;20064;-86
2021/06/20 10:53:52;;;;;;;2.15;0.80;;;21.20;99.90;;;;;;5073242;28;20495;-87
2021/06/20 10:56:25;;;;;;;2.40;0.90;;;21.30;99.90;;;;;;5073238;28;20611;-85
2021/06/20 10:58:54;;;;;;;1.70;0.70;;;21.30;99.90;;;;;;5089879;28;20374;-86
2021/06/20 11:01:24;;;;;;;1.45;0.70;;;21.30;99.90;;;;;;5088678;28;20041;-84
2021/06/20 11:03:51;;;;;;;1.90;0.90;;;21.20;99.90;;;;;;5089309;28;20040;-85
2021/06/20 11:06:24;;;;;;;2.58;0.80;;;21.00;99.90;;;;;;5088808;28;20083;-84
2021/06/20 11:09:08;;;;;;;3.10;0.75;;;21.00;99.90;;;;;;5072640;28;20036;-85
2021/06/20 11:11:47;;;;;;;2.50;0.95;;;20.80;99.90;;;;;;5090150;28;20064;-87
2021/06/20 11:14:14;;;;;;;3.67;1.10;;;20.70;99.90;;;;;;5074335;28;20103;-87
2021/06/20 11:16:45;;;;;;;2.58;0.82;;;20.60;99.90;;;;;;5089492;28;20045;-86
2021/06/20 11:19:20;;;;;;;1.95;0.90;;;20.70;99.90;;;;;;5089577;28;20401;-86
2021/06/20 11:22:01;;;;;;;2.60;0.80;;;20.60;99.90;;;;;;5072999;28;20049;-85
2021/06/20 11:24:49;;;;;;;1.88;0.80;;;20.70;99.90;;;;;;5072407;28;20041;-84
2021/06/20 11:27:19;;;;;;;2.10;0.70;;;20.50;99.90;;;;;;5072590;28;20051;-87
2021/06/20 11:29:52;;;;;;;1.95;0.70;;;20.60;99.90;;;;;;5089253;28;20478;-86
2021/06/20 11:32:33;;;;;;;2.33;0.77;;;20.60;99.90;;;;;;5090239;28;20045;-85
2021/06/20 11:35:27;;;;;;;3.70;0.98;;;20.50;99.90;;;;;;5089265;28;20063;-85
2021/06/20 11:38:11;;;;;;;3.20;1.15;;;20.40;99.90;;;;;;5088899;28;20110;-86
2021/06/20 11:40:38;;;;;;;4.03;0.90;;;20.40;99.90;;;;;;5088246;28;20065;-86
2021/06/20 11:43:05;;;;;;;3.80;1.10;;;20.40;99.90;;;;;;5055526;28;20037;-87
2021/06/20 11:45:33;;;;;;;3.58;0.90;;;20.60;99.90;;;;;;5038971;28;20045;-87
2021/06/20 11:48:03;;;;;;;1.70;0.80;;;20.60;99.90;;;;;;5072038;28;20040;-85
2021/06/20 11:50:31;;;;;;;3.42;1.00;;;20.80;99.90;;;;;;5071807;28;20102;-86
2021/06/20 11:53:03;;;;;;;2.78;0.90;;;20.80;99.90;;;;;;5072087;28;20037;-87
2021/06/20 11:55:35;;;;;;;1.73;0.80;;;20.90;99.90;;;;;;5071588;28;20111;-85
2021/06/20 11:58:06;;;;;;;3.08;0.90;;;20.80;99.90;;;;;;5088272;28;20048;-86
2021/06/20 12:00:37;;;;;;;1.00;0.70;;;20.80;99.90;;;;;;5088261;28;20033;-86
2021/06/20 12:03:15;;;;;;;3.28;0.90;;;20.80;99.90;;;;;;5055990;28;20071;-87
2021/06/20 12:05:58;;;;;;;2.72;1.00;;;20.80;99.90;;;;;;5087224;28;20041;-86
2021/06/20 12:08:26;;;;;;;2.55;0.90;;;20.70;99.90;;;;;;5089333;28;20033;-87
2021/06/20 12:10:53;;;;;;;3.33;0.85;;;20.60;99.90;;;;;;5072117;28;20557;-87
2021/06/20 12:13:20;;;;;;;2.65;0.75;;;20.50;99.90;;;;;;5055130;28;20067;-87
2021/06/20 12:15:57;;;;;;;2.53;0.88;;;20.40;99.90;;;;;;5071636;28;20462;-86
2021/06/20 12:18:28;;;;;;;3.22;1.10;;;20.30;99.90;;;;;;5087759;28;20496;-87
2021/06/20 12:20:55;;;;;;;3.92;1.00;;;20.30;99.90;;;;;;5088293;28;20037;-87
2021/06/20 12:23:32;;;;;;;1.35;0.63;;;20.20;99.90;;;;;;5087620;28;20036;-88
2021/06/20 12:26:00;;;;;;;1.75;0.80;;;20.10;99.90;;;;;;5087753;28;20399;-86
2021/06/20 12:28:28;;;;;;;2.30;0.93;;;20.10;99.90;;;;;;5087308;28;20057;-86
2021/06/20 12:30:56;;;;;;;1.20;0.73;;;20.10;99.90;;;;;;5088353;28;20037;-86
2021/06/20 12:33:24;;;;;;;2.13;0.85;;;20.10;99.90;;;;;;5087672;28;20033;-87
2021/06/20 12:36:03;;;;;;;4.05;1.00;;;20.20;99.90;;;;;;5071713;28;20041;-88
2021/06/20 12:38:35;;;;;;;2.70;0.90;;;20.30;99.90;;;;;;5087644;28;20036;-86
2021/06/20 12:41:02;;;;;;;1.92;0.80;;;20.30;99.90;;;;;;5088372;28;20033;-86
2021/06/20 12:43:29;;;;;;;1.98;0.80;;;20.40;99.90;;;;;;5088191;28;20040;-88